Latest Coastal Weather Observations for Avalon

IDV60701

Issued at 1:12 am EST Thursday 3 September 2026 (issued every 10 minutes, with the page automatically refreshed every 10 minutes)

About coastal observations | Map of coastal stations | Coastal observations for VIC | Marine services | Other Formats
Station Details ID: 087113 Name: AVALON AIRPORT Lat: -38.03 Lon: 144.48 Height: 10.6 m
Data from the previous 72 hours. | See also: Recent months at Avalon
Date/Time
EST
Wind Sea
Height
m
Swell Vis
km
Cloud Weather Temp
°C
Press
MSL
hPa
Rain since
9am
mm
Dir  Spd
kts
Gust
kts
Height
m
Period
s
Dir
03/01:00am NNW 8 10 - - - - 10 Mostly clear - 9.2 1009.9 0.2
03/12:30am NW 10 15 - - - - 10 Partly cloudy - 11.0 1010.0 0.2
03/12:00am NW 7 8 - - - - 10 Mostly clear - 8.5 1010.3 0.0
 
Date/Time
EST
Wind Sea
Height
m
Swell Vis
km
Cloud Weather Temp
°C
Press
MSL
hPa
Rain since
9am
mm
Dir  Spd
kts
Gust
kts
Height
m
Period
s
Dir
02/11:30pm NNW 7 8 - - - - 10 - - 8.3 1010.7 0.0
02/11:00pm NNW 8 9 - - - - 10 - - 8.1 1011.1 0.0
02/10:30pm NW 7 9 - - - - 10 - - 10.0 1011.4 0.0
02/10:00pm NW 9 11 - - - - 10 Partly cloudy - 12.0 1011.6 0.0
02/09:30pm NW 13 17 - - - - 10 Partly cloudy - 12.8 1012.0 0.0
02/09:00pm WNW 13 17 - - - - 10 Partly cloudy - 12.8 1011.5 0.0
02/08:30pm NNW 3 6 - - - - 10 Cloudy - 11.2 1011.8 0.0
02/08:00pm NW 7 8 - - - - 10 Partly cloudy - 11.7 1011.8 0.0
02/07:30pm WNW 8 10 - - - - 10 Partly cloudy - 11.9 1011.5 0.0
02/07:00pm W 9 12 - - - - 10 Partly cloudy - 11.1 1011.2 0.0
02/06:30pm W 7 9 - - - - 10 - - 11.6 1010.9 0.0
02/06:00pm W 5 7 - - - - 10 Mostly clear - 12.8 1011.0 0.0
02/05:30pm W 8 12 - - - - 10 - - 13.9 1010.7 0.0
02/05:00pm W 9 13 - - - - 10 - - 15.1 1010.9 0.0
02/04:30pm W 11 15 - - - - 10 - - 15.5 1011.1 0.0
02/04:00pm WNW 13 19 - - - - 10 - - 15.7 1011.6 0.0
02/03:30pm W 14 19 - - - - 10 - - 15.8 1012.0 0.0
02/03:00pm W 14 18 - - - - 10 Mostly clear - 16.1 1012.2 0.0
02/02:30pm W 14 20 - - - - 10 Cloudy - 15.6 1012.4 0.0
02/02:00pm W 14 21 - - - - 10 - - 15.6 1012.7 0.0
02/01:30pm W 14 19 - - - - 10 - - 15.1 1012.8 0.0
02/01:00pm W 15 20 - - - - 10 - - 15.5 1013.2 0.0
02/12:30pm W 13 18 - - - - 10 - - 15.3 1013.9 0.0
02/12:00pm WNW 13 17 - - - - 10 Mostly clear - 14.3 1014.6 0.0
02/11:30am WNW 12 17 - - - - 10 Partly cloudy - 13.6 1015.0 0.0
02/11:00am WNW 12 15 - - - - 10 Partly cloudy - 12.5 1015.2 0.0
02/10:30am NW 14 18 - - - - 10 Cloudy - 12.4 1015.4 0.0
02/10:00am WNW 14 19 - - - - 10 Cloudy - 12.7 1015.6 0.0
02/09:30am WNW 12 15 - - - - 10 Cloudy - 12.5 1015.7 0.0
02/09:00am WNW 11 14 - - - - 10 Cloudy - 12.3 1015.8 0.0
02/08:30am WNW 9 13 - - - - 10 Cloudy - 12.4 1015.6 0.0
02/08:00am NW 7 9 - - - - 10 Cloudy - 11.5 1015.4 0.0
02/07:30am WNW 7 9 - - - - 10 Cloudy - 10.9 1015.1 0.0
02/07:00am WNW 7 9 - - - - 10 Mostly clear - 10.2 1014.7 0.0
02/06:30am WNW 7 9 - - - - 10 Partly cloudy - 9.7 1014.3 0.0
02/06:00am WNW 8 10 - - - - 10 Partly cloudy - 10.2 1014.1 0.0
02/05:30am W 9 12 - - - - 10 Partly cloudy - 10.7 1013.8 0.0
02/05:00am W 9 13 - - - - 10 Partly cloudy - 12.0 1013.8 0.0
02/04:30am W 8 10 - - - - 10 Partly cloudy - 12.1 1013.1 0.0
02/04:00am W 9 12 - - - - 10 Mostly clear - 12.2 1013.0 0.0
02/03:30am W 9 12 - - - - 10 Mostly clear - 12.3 1013.0 0.0
02/03:00am WSW 13 16 - - - - 10 Cloudy - 13.0 1012.8 0.0
02/02:30am WSW 15 19 - - - - 10 Partly cloudy - 13.8 1012.7 0.0
02/02:00am WNW 9 12 - - - - 10 Partly cloudy - 15.5 1012.3 0.0
02/01:30am NW 9 13 - - - - 10 Partly cloudy - 15.7 1012.2 0.0
02/01:00am NW 9 13 - - - - 10 Partly cloudy - 15.6 1012.2 0.0
02/12:30am WNW 11 15 - - - - 10 Cloudy - 16.0 1012.1 0.0
02/12:00am WNW 12 16 - - - - 10 Cloudy - 15.9 1012.1 0.0
 
Date/Time
EST
Wind Sea
Height
m
Swell Vis
km
Cloud Weather Temp
°C
Press
MSL
hPa
Rain since
9am
mm
Dir  Spd
kts
Gust
kts
Height
m
Period
s
Dir
01/11:30pm NW 13 19 - - - - 10 Partly cloudy - 16.7 1012.2 0.0
01/11:00pm WNW 13 18 - - - - 10 Partly cloudy - 16.8 1012.4 0.0
01/10:30pm NW 13 19 - - - - 10 Partly cloudy - 16.6 1012.2 0.0
01/10:00pm NW 15 23 - - - - 10 Partly cloudy - 17.2 1011.9 0.0
01/09:30pm NNW 11 17 - - - - 10 Mostly clear - 16.9 1011.7 0.0
01/09:00pm NNW 10 13 - - - - 10 Cloudy Rain 16.4 1011.7 0.0
01/08:30pm NW 10 14 - - - - 10 Mostly clear - 16.6 1012.0 0.0
01/08:00pm NNW 12 17 - - - - 10 Cloudy - 16.8 1011.8 0.0
01/07:30pm NNW 10 13 - - - - 10 Cloudy - 16.6 1011.9 0.0
01/07:00pm NNW 17 25 - - - - 10 Cloudy - 17.2 1012.2 0.0
01/06:30pm NNW 13 17 - - - - 10 Mostly clear - 18.5 1012.2 0.0
01/06:00pm NNW 14 19 - - - - 10 Cloudy - 19.1 1012.4 0.0
01/05:30pm NNW 14 19 - - - - 10 Partly cloudy - 19.4 1012.6 0.0
01/05:00pm NNW 16 23 - - - - 10 Partly cloudy - 19.5 1012.7 0.0
01/04:30pm NNW 14 20 - - - - 10 - - 19.7 1012.7 0.0
01/04:00pm NNW 16 24 - - - - 10 - - 19.9 1012.8 0.0
01/03:30pm NW 14 21 - - - - 10 - - 20.2 1012.9 0.0
01/03:00pm NNW 15 21 - - - - 10 Cloudy - 20.1 1012.9 0.0
01/02:30pm NNW 15 20 - - - - 10 - - 20.2 1012.6 0.0
01/02:10pm NNW 18 27 - - - - 10 - - 20.8 1012.7 0.0
01/02:00pm NNW 19 29 - - - - 10 - - 21.4 1012.9 0.0
01/01:30pm NNW 20 28 - - - - 10 - - 21.4 1013.2 0.0
01/01:00pm NW 19 31 - - - - 10 - - 21.3 1014.2 0.0
01/12:30pm NW 23 34 - - - - 10 - - 20.9 1015.0 0.0
01/12:00pm NW 18 28 - - - - 10 - - 21.1 1015.7 0.0
01/11:54am NW 18 28 - - - - 10 - - 21.5 1015.8 0.0
01/11:47am NW 22 28 - - - - 10 - - 20.9 1015.9 0.0
01/11:33am NW 14 26 - - - - 10 - - 21.2 1016.3 0.0
01/11:30am NNW 13 26 - - - - 10 - - 21.1 1016.3 0.0
01/11:11am N 18 25 - - - - 10 - - 20.4 1016.8 0.0
01/11:01am NNW 18 28 - - - - 10 - - 20.8 1017.0 0.0
01/11:00am NNW 19 28 - - - - 10 - - 20.8 1017.0 0.0
01/10:59am NNW 20 28 - - - - 10 - - 20.5 1017.0 0.0
01/10:40am N 20 33 - - - - 10 - - 19.9 1016.8 0.0
01/10:30am NNW 19 25 - - - - 10 - - 19.7 1017.0 0.0
01/10:00am N 13 23 - - - - 10 - - 18.9 1017.4 0.0
01/09:30am NNE 13 17 - - - - 10 - - 16.5 1018.1 0.0
01/09:00am NNE 11 14 - - - - 10 - - 15.2 1018.8 0.0
01/08:30am NNE 11 14 - - - - 10 - - 12.9 1019.4 0.0
01/08:00am N 9 11 - - - - 10 - - 11.7 1019.9 0.0
01/07:30am N 6 9 - - - - 10 - - 9.8 1020.2 0.0
01/07:00am N 6 7 - - - - 10 - - 9.5 1020.2 0.0
01/06:30am NNE 6 7 - - - - 10 - - 8.1 1020.2 0.0
01/06:00am NNE 7 8 - - - - 10 - - 9.4 1020.3 0.0
01/05:30am CALM 0 0 - - - - 10 - - 6.8 1020.7 0.0
01/05:00am N 4 5 - - - - 10 - - 8.4 1020.8 0.0
01/04:30am N 3 5 - - - - 10 - - 8.5 1020.9 0.0
01/04:00am N 9 12 - - - - 10 - - 10.0 1021.1 0.0
01/03:30am NNW 5 6 - - - - 10 - - 5.8 1021.5 0.0
01/03:00am NNW 4 5 - - - - 10 - Recent precip. 5.9 1021.9 0.0
01/02:54am N 5 6 - - - - 10 - - 6.0 1022.1 0.0
01/02:43am NE 4 7 - - - - 2 Mostly clear - 4.9 1022.3 0.0
01/02:30am CALM 0 0 - - - - 0.3 Partly cloudy - 4.8 1022.6 0.0
01/02:01am CALM 0 0 - - - - 1 Partly cloudy - 4.5 1023.0 0.0
01/02:00am CALM 0 0 - - - - 1 Partly cloudy - 4.3 1023.0 0.0
01/01:47am CALM 0 0 - - - - 4 - - 5.7 1023.2 0.0
01/01:36am CALM 0 0 - - - - 10 - - 5.5 1023.2 0.0
01/01:30am CALM 0 0 - - - - 9 - - 5.5 1023.3 0.0
01/01:19am CALM 0 0 - - - - 6 - - 6.2 1023.6 0.0
01/01:00am CALM 0 0 - - - - 10 - - 5.4 1023.7 0.0
01/12:30am CALM 0 0 - - - - 10 - - 5.1 1024.0 0.0
01/12:00am WNW 2 3 - - - - 10 - - 6.7 1024.5 0.0
 
Date/Time
EST
Wind Sea
Height
m
Swell Vis
km
Cloud Weather Temp
°C
Press
MSL
hPa
Rain since
9am
mm
Dir  Spd
kts
Gust
kts
Height
m
Period
s
Dir
31/11:30pm NNE 2 5 - - - - 8 - - 7.5 1024.9 0.0
31/11:00pm NNE 5 7 - - - - 10 - - 9.9 1025.4 0.0
31/10:30pm NNE 7 8 - - - - 10 - - 10.5 1025.8 0.0
31/10:00pm N 6 8 - - - - 10 - - 10.5 1026.1 0.0
31/09:30pm NNE 6 8 - - - - 10 - - 10.5 1026.3 0.0
31/09:00pm NNE 4 7 - - - - 10 - - 9.3 1026.5 0.0
31/08:30pm NNE 3 5 - - - - 10 - - 9.1 1026.7 0.0
31/08:00pm NE 4 5 - - - - 10 - - 9.8 1026.9 0.0
31/07:30pm NE 3 3 - - - - 10 - - 8.8 1027.0 0.0
31/07:00pm NE 3 4 - - - - 10 - - 10.3 1027.1 0.0
31/06:30pm ENE 5 6 - - - - 10 - - 11.5 1027.1 0.0
31/06:00pm ENE 5 6 - - - - 10 - - 10.9 1027.3 0.0
31/05:30pm ENE 5 6 - - - - 10 - - 13.4 1027.3 0.0
31/05:00pm NE 5 6 - - - - 10 - - 13.9 1027.5 0.0
31/04:30pm ENE 7 9 - - - - 10 - - 14.1 1027.5 0.0
31/04:00pm E 5 6 - - - - 10 - - 14.6 1027.9 0.0
31/03:30pm E 5 7 - - - - 10 - - 14.6 1028.3 0.0
31/03:00pm ESE 6 8 - - - - 10 - - 14.1 1028.5 0.0
31/02:30pm ESE 7 8 - - - - 10 - - 13.6 1028.9 0.0
31/02:00pm ESE 7 10 - - - - 10 - - 13.8 1029.5 0.0
31/01:30pm ESE 7 9 - - - - 10 - - 13.1 1030.0 0.0
31/01:00pm ESE 5 7 - - - - 10 - - 14.1 1030.4 0.0
31/12:30pm S 4 6 - - - - 10 - - 13.3 1031.0 0.0
31/12:00pm SW 3 6 - - - - 10 - - 12.9 1031.5 0.0
31/11:37am CALM 0 0 - - - - 10 Mostly clear - 13.0 1032.0 0.0
31/11:30am NW 2 5 - - - - 10 Partly cloudy - 12.3 1032.1 0.0
31/11:00am NW 3 5 - - - - 10 Cloudy - 10.6 1032.5 0.0
31/10:30am WSW 5 7 - - - - 10 Cloudy - 9.9 1032.7 0.0
31/10:00am WNW 7 9 - - - - 10 Cloudy - 9.4 1032.8 0.0
31/09:30am NW 7 9 - - - - 10 Cloudy - 9.2 1032.9 0.0
31/09:00am NW 7 9 - - - - 10 Cloudy - 8.9 1032.9 0.0
31/08:30am NW 6 8 - - - - 10 Cloudy - 8.8 1032.9 0.0
31/08:00am WNW 7 8 - - - - 10 Cloudy - 8.6 1032.8 0.0
31/07:30am WNW 7 9 - - - - 10 Cloudy - 8.5 1032.6 0.0
31/07:00am WNW 6 7 - - - - 10 Cloudy - 8.5 1032.6 0.0
31/06:30am WNW 6 7 - - - - 10 Cloudy - 8.5 1032.5 0.0
31/06:00am NW 7 8 - - - - 10 Cloudy - 8.7 1032.3 0.0
31/05:30am WNW 9 12 - - - - 10 Cloudy - 8.8 1032.3 0.0
31/05:26am WNW 10 12 - - - - 10 Cloudy - 8.8 1032.3 0.0
31/05:00am WNW 11 14 - - - - 10 Cloudy - 8.8 1032.0 0.0
31/04:30am WNW 11 13 - - - - 10 Cloudy - 8.8 1032.2 0.0
31/04:00am WNW 9 11 - - - - 10 Cloudy - 8.8 1032.2 0.0
31/03:30am W 9 10 - - - - 10 Cloudy - 9.1 1032.4 0.0
31/03:00am W 7 9 - - - - 10 Cloudy - 9.4 1032.7 0.0
31/02:30am W 7 10 - - - - 10 Cloudy - 9.5 1032.8 0.0
31/02:00am WNW 7 9 - - - - 10 Cloudy - 9.8 1032.9 0.0
31/01:30am W 5 6 - - - - 10 Cloudy - 9.6 1032.8 0.0

Other formats

Comma delimited format used in spreadsheet applications
http://www.bom.gov.au/fwo/IDV60701/IDV60701.94854.axf

JavaScript Object Notation format (JSON) in row-major order
http://www.bom.gov.au/fwo/IDV60701/IDV60701.94854.json

Data quality

Most of these data are generated automatically and are frequently updated. Quality checks on data are not normally performed. It is possible for incorrect values to appear. Refer to information at About Latest Weather Observations and please check the disclaimer before using these data.